Aérodrome :
LOGIN :

S'inscrire | Disclaimer

   EN    FR    IT 

 










Légende :    VFR   VFR Marginal   IFR   IFR Intensif   IFR Très Intensif
Visi : 
Plafond : 
>= 8 km
>= 3000ft
5 à 8 km
1000 à 3000 ft
1500m à 5 km
500 à 1000 ft
800 à 1500m
200 à 500 ft
< 800m
< 200 ft
Symboles :   Orages  Brouillard  Fortes neiges  Fortes précipitations  Vent > 20 kt
SIGMETs :   Divers  Orages  Givrage  Turbulence  Onde Orograph.  Cendres Volcan.







- Altitude de l'aérodrome : 410 ft
- Code IATA : AVB


LIPA - Aviano AB Pordenone

DERNIER METAR :
  • 280655Z 05005KT 9999 SCT050 SCT055 26/19 Q1005 RMK BKN VIS MIN 9999 WIND THR05 09007KT WIND THR23 07006KT A2970 BLU

METARs EXPIRÉS :
  • 280555Z 04005KT 9999 SCT080 25/20 Q1005 RMK SCT VIS MIN 9999 WIND THR05 07004KT WIND THR23 03005KT A2970 BLU
  • 280455Z 02004KT 9999 BKN060 23/20 Q1005 RMK BKN VIS MIN 9999 WIND THR05 02002KT WIND THR23 01004KT A2970 BLU

TAF TAF LIPA
Valide du 28 à 06h jusqu'au 28 à 15h UTC


280500Z 2806/2815 03005KT 9999 BKN060
TEMPO 2806/2815 5000 SHRA SCT020CB BKN040
Pas de NOTAMs connus pour ce terrain.
1 SIGMET publié pour la FIR Milano (LIMM) :
 
Orages noyés dans la masse
LIMM SIGMET 3 VALID 280650/281050 LIMM- LIMM MILANO FIR EMBD TS FCST N OF LINE N4347 E00717 - N4415 E00818 - N4507 E00824 - N4525 E00924 - N4539 E01118 - N4559 E01227 - N4609 E01340 - N4347 E00717 TOP FL400 MOV NE NC=



MET'MAP, la Météo Aéronautique d'un coup d'oeil ! - Copyright ORBIFLY Décembre 2007 - Disclaimer

ORBIFLY MET'MAP TEAM :

Programmation & Développement : Alexandra Zaïnal
Conception & Développement : Baudouin d'Aumeries
Co-Programmation & Développement : Marc-Olivier Méhu
Soutien technique & logistique : Manuel Goepfert

Contact : metmap@orbifly.com




SOURCES & CREDITS :

   NOAA